Terminal Aerodrome Forecast
Issued by NWS Springfield, MO

Home | Current Version | Previous Version | Text Only | Print | Product List | Glossary On
Versions: 1 2 3 4 5 6 7 8 9 10 11 12 13 14 15 16 17 18 19 20 21 22 23
000
FTUS43 KSGF 040900 AAA
TAFSGF
TAF AMD
KSGF 040957Z 0410/0506 03003KT P6SM SCT025
      TEMPO 0411/0413 4SM BR BKN025
     FM041400 10006KT P6SM FEW050
     FM050000 12005KT P6SM SKC=

USA.gov is the U.S. government's official web portal to all federal, state and local government web resources and services.